Aviation Digital Data Service (ADDS)

Output produced by METARs form (0603 UTC 05 July 2015)
found at http://aviationweather.gov/adds/metars/
 
KMFD 050557Z 0506/0606 VRB02KT 4SM BR BKN250 
     FM051400 09003KT 6SM HZ BKN250 
     FM051700 09005KT P6SM BKN250